Terminal Aerodrome Forecast
Issued by NWS

Home | Current Version | Previous Version | Text Only | Print | Product List | Glossary On
Versions: 1 2 3 4 5 6 7 8 9 10 11 12 13 14 15 16 17 18 19 20 21 22
000
FTUS43 KDTX 012300
TAFDET
TAF
KDET 012320Z 0200/0224 22012G22KT P6SM SCT025 BKN045
      TEMPO 0200/0201 3SM SHRA BKN025 OVC035
     FM020200 23009KT P6SM SCT045 BKN090 OVC200
     FM020700 23005KT 5SM BR BKN018
     FM021300 25007KT P6SM SCT020 BKN040
     FM021700 26012KT P6SM SCT045=

USA.gov is the U.S. government's official web portal to all federal, state and local government web resources and services.